Time;durP1;ratioP1;P1;durP2;ratioP2;P2;SDS_P1;SDS_P2;PMS_P1;PMS_P2;Temp;Humidity;BMP_temperature;BMP_pressure;BME280_temperature;BME280_humidity;BME280_pressure;Samples;Min_cycle;Max_cycle;Signal;HPM_P1;HPM_P2
2022/08/15 00:00:49;;;;;;;0.40;0.40;;;22.60;99.90;;;;;;5027752;28;21113;-79
2022/08/15 00:03:22;;;;;;;0.30;0.30;;;22.70;99.90;;;;;;5044974;28;20041;-79
2022/08/15 00:05:49;;;;;;;0.40;0.40;;;22.60;99.90;;;;;;5028019;28;20052;-79
2022/08/15 00:08:14;;;;;;;0.30;0.30;;;22.40;99.90;;;;;;5047976;28;20058;-79
2022/08/15 00:10:44;;;;;;;0.30;0.30;;;22.70;99.90;;;;;;5033501;28;20048;-79
2022/08/15 00:13:18;;;;;;;0.30;0.30;;;22.90;99.90;;;;;;5044182;28;20600;-79
2022/08/15 00:15:46;;;;;;;0.30;0.30;;;23.00;99.90;;;;;;5035035;28;20062;-80
2022/08/15 00:18:13;;;;;;;0.30;0.30;;;23.20;99.90;;;;;;5049063;28;20049;-79
2022/08/15 00:20:39;;;;;;;0.35;0.35;;;23.20;99.90;;;;;;5029824;28;20052;-79
2022/08/15 00:23:09;;;;;;;0.40;0.40;;;23.20;99.90;;;;;;5032902;28;20080;-79
2022/08/15 00:25:37;;;;;;;0.30;0.30;;;23.20;99.90;;;;;;5031576;28;20057;-80
2022/08/15 00:28:05;;;;;;;0.30;0.30;;;23.10;99.90;;;;;;5030845;28;20325;-79
2022/08/15 00:30:35;;;;;;;0.30;0.30;;;23.00;99.90;;;;;;5045336;28;20123;-79
2022/08/15 00:33:01;;;;;;;0.30;0.30;;;22.90;99.90;;;;;;5031488;28;20524;-80
2022/08/15 00:35:36;;;;;;;0.30;0.30;;;23.20;99.90;;;;;;5047240;28;20047;-80
2022/08/15 00:38:12;;;;;;;0.30;0.30;;;23.50;99.90;;;;;;5051151;28;20045;-79
2022/08/15 00:43:55;;;;;;;0.30;0.30;;;23.50;99.90;;;;;;5048197;28;20087;-79
2022/08/15 00:46:21;;;;;;;0.38;0.38;;;23.00;99.90;;;;;;5049364;28;20056;-78
2022/08/15 00:48:49;;;;;;;0.30;0.30;;;22.80;99.90;;;;;;5025239;28;20055;-79
2022/08/15 00:51:25;;;;;;;0.30;0.30;;;22.70;99.90;;;;;;5029680;28;20045;-79
2022/08/15 00:54:11;;;;;;;0.30;0.30;;;22.60;99.90;;;;;;5028482;28;20516;-79
2022/08/15 00:56:51;;;;;;;0.30;0.30;;;22.40;99.90;;;;;;5030106;28;20397;-79
2022/08/15 00:59:23;;;;;;;0.30;0.30;;;22.20;99.90;;;;;;5030460;28;20128;-79
2022/08/15 01:01:50;;;;;;;0.30;0.30;;;22.00;99.90;;;;;;5025554;28;20056;-78
2022/08/15 01:04:17;;;;;;;0.30;0.30;;;22.00;99.90;;;;;;5029452;28;20048;-80
2022/08/15 01:06:45;;;;;;;0.30;0.30;;;22.10;99.90;;;;;;5026565;28;20052;-79
2022/08/15 01:09:12;;;;;;;0.30;0.30;;;22.00;99.90;;;;;;5027803;28;20049;-80
2022/08/15 01:11:49;;;;;;;0.30;0.30;;;22.00;99.90;;;;;;5028374;28;20606;-79
2022/08/15 01:14:16;;;;;;;0.30;0.30;;;22.00;99.90;;;;;;5047116;28;20309;-79
2022/08/15 01:16:42;;;;;;;0.30;0.30;;;22.00;99.90;;;;;;5046250;28;20578;-79
2022/08/15 01:19:23;;;;;;;0.30;0.30;;;21.90;99.90;;;;;;5045716;28;20646;-79
2022/08/15 01:22:10;;;;;;;0.30;0.30;;;21.90;99.90;;;;;;5027903;28;20298;-79
2022/08/15 01:24:52;;;;;;;0.30;0.30;;;21.90;99.90;;;;;;5044881;28;20045;-79
2022/08/15 01:27:22;;;;;;;0.30;0.30;;;21.80;99.90;;;;;;5009564;28;20765;-79
2022/08/15 01:29:50;;;;;;;0.30;0.30;;;21.70;99.90;;;;;;5027888;28;20842;-79
2022/08/15 01:32:16;;;;;;;0.30;0.30;;;21.70;99.90;;;;;;5029642;28;20600;-79
2022/08/15 01:34:42;;;;;;;0.30;0.30;;;21.60;99.90;;;;;;5027083;28;20104;-79
2022/08/15 01:37:08;;;;;;;0.30;0.30;;;21.80;99.90;;;;;;5049021;28;20052;-80
2022/08/15 01:39:46;;;;;;;0.38;0.38;;;21.80;99.90;;;;;;5046339;28;20052;-79
2022/08/15 01:42:38;;;;;;;0.30;0.30;;;21.60;99.90;;;;;;5032322;28;20143;-79
2022/08/15 01:45:26;;;;;;;0.30;0.30;;;21.60;99.90;;;;;;5026614;28;20056;-79
2022/08/15 01:47:59;;;;;;;0.30;0.30;;;21.60;99.90;;;;;;5026384;28;20057;-79
2022/08/15 01:50:32;;;;;;;0.30;0.30;;;21.50;99.90;;;;;;5014307;28;20045;-79
2022/08/15 01:53:15;;;;;;;0.30;0.30;;;21.50;99.90;;;;;;5046551;28;21041;-79
2022/08/15 01:56:01;;;;;;;0.30;0.30;;;21.40;99.90;;;;;;5028074;28;20052;-79
2022/08/15 01:58:27;;;;;;;0.30;0.30;;;21.40;99.90;;;;;;5046780;28;20071;-80
2022/08/15 02:01:08;;;;;;;0.30;0.30;;;21.00;99.90;;;;;;5047266;28;20425;-80
2022/08/15 02:03:36;;;;;;;0.30;0.30;;;20.80;99.90;;;;;;5044579;28;20049;-80
2022/08/15 02:06:12;;;;;;;0.30;0.30;;;20.90;99.90;;;;;;5046349;28;20044;-80
2022/08/15 02:08:39;;;;;;;0.30;0.30;;;21.00;99.90;;;;;;5043894;28;20505;-80
2022/08/15 02:11:13;;;;;;;0.30;0.30;;;20.90;99.90;;;;;;5026447;28;20131;-79
2022/08/15 02:13:40;;;;;;;0.30;0.30;;;20.80;99.90;;;;;;5045550;28;20048;-79
2022/08/15 02:16:06;;;;;;;0.30;0.30;;;20.90;99.90;;;;;;5011331;28;20052;-79
2022/08/15 02:18:32;;;;;;;0.30;0.30;;;21.10;99.90;;;;;;5029929;28;20119;-79
2022/08/15 02:20:57;;;;;;;0.30;0.30;;;21.20;99.90;;;;;;5045387;28;20045;-79
2022/08/15 02:23:24;;;;;;;0.30;0.30;;;21.20;99.90;;;;;;5044395;28;20048;-78
2022/08/15 02:25:52;;;;;;;0.30;0.30;;;21.40;99.90;;;;;;5027973;28;20433;-79
2022/08/15 02:28:19;;;;;;;0.30;0.30;;;21.60;99.90;;;;;;5026352;28;20520;-79
2022/08/15 02:30:46;;;;;;;0.40;0.40;;;21.70;99.90;;;;;;5025833;28;20057;-78
2022/08/15 02:33:12;;;;;;;0.30;0.30;;;21.80;99.90;;;;;;5028372;28;20078;-79
2022/08/15 02:35:39;;;;;;;0.30;0.30;;;21.90;99.90;;;;;;5011837;28;20049;-79
2022/08/15 02:38:05;;;;;;;0.30;0.30;;;21.90;99.90;;;;;;5026444;28;20049;-79
2022/08/15 02:40:33;;;;;;;0.30;0.30;;;22.10;99.90;;;;;;5013126;28;20051;-79
2022/08/15 02:43:10;;;;;;;0.40;0.40;;;22.30;99.90;;;;;;5029320;28;20098;-79
2022/08/15 02:45:38;;;;;;;0.30;0.30;;;22.20;99.90;;;;;;5044341;28;20455;-79
2022/08/15 02:48:05;;;;;;;0.30;0.30;;;22.20;99.90;;;;;;5045778;28;20050;-79
2022/08/15 02:50:32;;;;;;;0.30;0.30;;;22.20;99.90;;;;;;5027911;28;20062;-79
2022/08/15 02:52:58;;;;;;;0.30;0.30;;;22.00;99.90;;;;;;5029276;28;20150;-79
2022/08/15 02:55:25;;;;;;;0.30;0.30;;;22.00;99.90;;;;;;5030000;28;20056;-79
2022/08/15 02:57:51;;;;;;;0.30;0.30;;;22.10;99.90;;;;;;5011841;28;20060;-79
2022/08/15 03:00:17;;;;;;;0.30;0.30;;;22.00;99.90;;;;;;5030439;28;20055;-79
2022/08/15 03:02:55;;;;;;;0.30;0.30;;;22.10;99.90;;;;;;5046120;28;20090;-80
2022/08/15 03:05:27;;;;;;;0.30;0.30;;;22.10;99.90;;;;;;5047635;28;20032;-79
2022/08/15 03:07:53;;;;;;;0.35;0.35;;;22.10;99.90;;;;;;5029499;28;20509;-79
2022/08/15 03:10:19;;;;;;;0.30;0.30;;;22.00;99.90;;;;;;5026556;28;20059;-79
2022/08/15 03:12:58;;;;;;;0.30;0.30;;;21.80;99.90;;;;;;5049162;28;20044;-79
2022/08/15 03:15:31;;;;;;;0.30;0.30;;;21.80;99.90;;;;;;5023010;28;20055;-80
2022/08/15 03:17:59;;;;;;;0.30;0.30;;;21.70;99.90;;;;;;5046065;28;20086;-79
2022/08/15 03:20:26;;;;;;;0.40;0.40;;;21.40;99.90;;;;;;5047841;28;20049;-79
2022/08/15 03:22:52;;;;;;;0.30;0.30;;;21.20;99.90;;;;;;5045212;28;20049;-79
2022/08/15 03:25:20;;;;;;;0.30;0.30;;;21.00;99.90;;;;;;5026871;28;20139;-79
2022/08/15 03:27:46;;;;;;;0.30;0.30;;;20.80;99.90;;;;;;5043215;28;20049;-79
2022/08/15 03:30:14;;;;;;;0.30;0.30;;;21.20;99.90;;;;;;5029321;28;20167;-79
2022/08/15 03:32:46;;;;;;;0.32;0.32;;;21.10;99.90;;;;;;5029578;28;20051;-79
2022/08/15 03:35:12;;;;;;;0.40;0.40;;;21.00;99.90;;;;;;5028117;28;20044;-79
2022/08/15 03:37:39;;;;;;;0.40;0.40;;;21.00;99.90;;;;;;5029473;28;20048;-79
2022/08/15 03:40:06;;;;;;;0.30;0.30;;;20.90;99.90;;;;;;5045443;28;20048;-78
2022/08/15 03:42:33;;;;;;;0.30;0.30;;;20.70;99.90;;;;;;5027182;28;20810;-79
2022/08/15 03:45:09;;;;;;;0.30;0.30;;;20.70;99.90;;;;;;5014226;28;20164;-78
2022/08/15 03:47:36;;;;;;;0.30;0.30;;;20.50;99.90;;;;;;5047060;28;20054;-78
2022/08/15 03:50:04;;;;;;;0.30;0.30;;;20.50;99.90;;;;;;5031126;28;20048;-79
2022/08/15 03:52:31;;;;;;;0.30;0.30;;;20.50;99.90;;;;;;5035117;28;20087;-79
2022/08/15 03:55:05;;;;;;;0.30;0.30;;;20.30;99.90;;;;;;5017494;28;20052;-79
2022/08/15 03:57:31;;;;;;;0.30;0.30;;;20.30;99.90;;;;;;5049407;28;20048;-79
2022/08/15 03:59:56;;;;;;;0.30;0.30;;;20.30;99.90;;;;;;5022995;28;20267;-79
2022/08/15 04:02:25;;;;;;;0.30;0.30;;;20.10;99.90;;;;;;5032544;28;20428;-79
2022/08/15 04:04:51;;;;;;;0.30;0.30;;;20.00;99.90;;;;;;5047983;28;20124;-78
2022/08/15 04:07:16;;;;;;;0.30;0.30;;;20.10;99.90;;;;;;5033431;28;20059;-79
2022/08/15 04:09:43;;;;;;;0.30;0.30;;;20.40;99.90;;;;;;5051357;28;20044;-79
2022/08/15 04:12:09;;;;;;;0.30;0.30;;;20.40;99.90;;;;;;5032087;28;20048;-79
2022/08/15 04:14:35;;;;;;;2.20;0.77;;;20.30;99.90;;;;;;5030631;28;20040;-79
2022/08/15 04:17:03;;;;;;;0.30;0.30;;;20.50;99.90;;;;;;5048289;28;20055;-80
2022/08/15 04:19:29;;;;;;;0.40;0.40;;;20.50;99.90;;;;;;5035741;28;20110;-79
2022/08/15 04:22:02;;;;;;;0.30;0.30;;;20.40;99.90;;;;;;5032573;28;20044;-79
2022/08/15 04:24:28;;;;;;;0.30;0.30;;;20.30;99.90;;;;;;5021899;28;20057;-79
2022/08/15 04:26:53;;;;;;;0.30;0.30;;;20.30;99.90;;;;;;5048462;28;20520;-79
2022/08/15 04:29:19;;;;;;;0.30;0.30;;;20.10;99.90;;;;;;5050366;28;20965;-79
2022/08/15 04:31:45;;;;;;;0.30;0.30;;;20.20;99.90;;;;;;5030939;28;20052;-79
2022/08/15 04:34:11;;;;;;;0.30;0.30;;;20.10;99.90;;;;;;5032926;28;20498;-79
2022/08/15 04:36:37;;;;;;;0.38;0.38;;;20.30;99.90;;;;;;5032605;28;20117;-79
2022/08/15 04:39:03;;;;;;;0.30;0.30;;;20.50;99.90;;;;;;5048080;28;20040;-79
2022/08/15 04:41:32;;;;;;;0.30;0.30;;;20.50;99.90;;;;;;5029596;28;20098;-79
2022/08/15 04:43:57;;;;;;;0.30;0.30;;;20.60;99.90;;;;;;5027054;28;20117;-79
2022/08/15 04:46:23;;;;;;;0.30;0.30;;;20.70;99.90;;;;;;5032727;28;20052;-79
2022/08/15 04:48:49;;;;;;;0.30;0.30;;;20.70;99.90;;;;;;5031341;28;20049;-79
2022/08/15 04:51:14;;;;;;;0.38;0.38;;;20.70;99.90;;;;;;5032669;28;20394;-80
2022/08/15 04:53:40;;;;;;;0.40;0.40;;;20.70;99.90;;;;;;5016416;28;20068;-79
2022/08/15 04:56:08;;;;;;;0.30;0.30;;;20.80;99.90;;;;;;5028718;28;20118;-80
2022/08/15 04:58:34;;;;;;;0.40;0.40;;;20.70;99.90;;;;;;5030111;28;20055;-80
2022/08/15 05:01:06;;;;;;;0.30;0.30;;;20.70;99.90;;;;;;5031579;28;20048;-80
2022/08/15 05:03:33;;;;;;;0.40;0.40;;;20.70;99.90;;;;;;5012146;28;20052;-79
2022/08/15 05:06:02;;;;;;;0.30;0.30;;;20.70;99.90;;;;;;5045879;28;20340;-80
2022/08/15 05:08:30;;;;;;;0.30;0.30;;;20.70;99.90;;;;;;5032610;28;20048;-80
2022/08/15 05:11:00;;;;;;;0.30;0.30;;;20.80;99.90;;;;;;5031159;28;20052;-80
2022/08/15 05:13:33;;;;;;;0.32;0.32;;;20.70;99.90;;;;;;5030336;28;20052;-80
2022/08/15 05:15:59;;;;;;;0.40;0.40;;;20.80;99.90;;;;;;5031132;28;20052;-80
2022/08/15 05:18:27;;;;;;;0.30;0.30;;;20.80;99.90;;;;;;5015623;28;20044;-79
2022/08/15 05:20:54;;;;;;;0.30;0.30;;;20.90;99.90;;;;;;5031666;28;20044;-80
2022/08/15 05:23:22;;;;;;;0.30;0.30;;;21.00;99.90;;;;;;5027554;28;20162;-79
2022/08/15 05:26:00;;;;;;;0.40;0.40;;;21.00;99.90;;;;;;5031906;28;20114;-79
2022/08/15 05:28:27;;;;;;;0.30;0.30;;;21.10;99.90;;;;;;5048315;28;20579;-79
2022/08/15 05:30:55;;;;;;;0.30;0.30;;;21.10;99.90;;;;;;5048284;28;20807;-79
2022/08/15 05:33:27;;;;;;;0.30;0.30;;;21.10;99.90;;;;;;5029925;28;20580;-78
2022/08/15 05:35:59;;;;;;;0.30;0.30;;;21.10;99.90;;;;;;5032829;28;20040;-79
2022/08/15 05:38:44;;;;;;;0.30;0.30;;;21.50;99.90;;;;;;5031031;28;20060;-79
2022/08/15 05:41:22;;;;;;;0.30;0.30;;;21.70;99.90;;;;;;5027699;28;20178;-78
2022/08/15 05:44:02;;;;;;;0.30;0.30;;;21.50;99.90;;;;;;5049278;28;20060;-79
2022/08/15 05:46:49;;;;;;;0.30;0.30;;;21.50;99.90;;;;;;5050117;28;20183;-79
2022/08/15 05:49:36;;;;;;;0.30;0.30;;;21.60;99.90;;;;;;5048860;28;20381;-78
2022/08/15 05:52:34;;;;;;;0.30;0.30;;;21.50;99.90;;;;;;5047780;28;20056;-79
2022/08/15 05:55:31;;;;;;;0.30;0.30;;;21.50;99.90;;;;;;5030756;28;20048;-78
2022/08/15 05:58:22;;;;;;;0.30;0.30;;;21.50;99.90;;;;;;5030370;28;20048;-79
2022/08/15 06:00:58;;;;;;;0.30;0.30;;;21.60;99.90;;;;;;5049616;28;20426;-79
2022/08/15 06:03:27;;;;;;;0.40;0.40;;;21.60;99.90;;;;;;5031220;28;20412;-79
2022/08/15 06:06:02;;;;;;;0.30;0.30;;;21.60;99.90;;;;;;5032491;28;20114;-80
2022/08/15 06:08:33;;;;;;;0.30;0.30;;;21.50;99.90;;;;;;5047449;28;20139;-80
2022/08/15 06:11:21;;;;;;;0.30;0.30;;;21.60;99.90;;;;;;5047734;28;20102;-79
2022/08/15 06:13:57;;;;;;;0.35;0.35;;;21.60;99.90;;;;;;5044212;28;20139;-80
2022/08/15 06:16:22;;;;;;;0.30;0.30;;;21.60;99.90;;;;;;5027882;28;20067;-80
2022/08/15 06:18:48;;;;;;;0.30;0.30;;;21.60;99.90;;;;;;5046410;28;20096;-81
2022/08/15 06:21:30;;;;;;;0.40;0.40;;;21.70;99.90;;;;;;5046945;28;20041;-80
2022/08/15 06:24:18;;;;;;;0.30;0.30;;;21.80;99.90;;;;;;5044649;28;20052;-79
2022/08/15 06:26:59;;;;;;;0.30;0.30;;;21.70;99.90;;;;;;5048511;28;20055;-80
2022/08/15 06:29:44;;;;;;;0.38;0.38;;;21.70;99.90;;;;;;5028296;28;20067;-81
2022/08/15 06:32:39;;;;;;;0.30;0.30;;;21.70;99.90;;;;;;5045102;28;20130;-81
2022/08/15 06:35:42;;;;;;;0.40;0.40;;;21.70;99.90;;;;;;5040196;28;20057;-79
2022/08/15 06:38:32;;;;;;;0.30;0.30;;;21.70;99.90;;;;;;5028133;28;20440;-80
2022/08/15 06:41:03;;;;;;;0.30;0.30;;;21.80;99.90;;;;;;5047584;28;20066;-80
2022/08/15 06:43:30;;;;;;;0.30;0.30;;;21.90;99.90;;;;;;5028144;28;20063;-79
2022/08/15 06:45:59;;;;;;;0.30;0.30;;;22.10;99.90;;;;;;5024671;28;20087;-79
2022/08/15 06:48:30;;;;;;;0.30;0.30;;;22.00;99.90;;;;;;5030169;28;20067;-80
2022/08/15 06:50:59;;;;;;;0.30;0.30;;;22.10;99.90;;;;;;5025807;28;20048;-81
2022/08/15 06:53:39;;;;;;;0.30;0.30;;;22.20;99.90;;;;;;5023787;28;20044;-81
2022/08/15 06:56:27;;;;;;;0.30;0.30;;;22.30;99.90;;;;;;5030135;28;20102;-80
2022/08/15 06:59:18;;;;;;;0.30;0.30;;;22.40;99.90;;;;;;5030873;28;20048;-80
2022/08/15 07:01:59;;;;;;;0.30;0.30;;;22.50;99.90;;;;;;5043253;28;20594;-81
2022/08/15 07:04:40;;;;;;;0.30;0.30;;;22.60;99.90;;;;;;5015870;28;20756;-81
2022/08/15 07:07:35;;;;;;;0.30;0.30;;;22.70;99.90;;;;;;5047244;28;20525;-81
2022/08/15 07:10:24;;;;;;;0.30;0.30;;;22.80;99.90;;;;;;5009287;28;20334;-79
2022/08/15 07:13:12;;;;;;;0.30;0.30;;;23.10;99.90;;;;;;5042782;28;20052;-80
2022/08/15 07:16:00;;;;;;;0.30;0.30;;;23.20;99.90;;;;;;5010272;28;20482;-80
2022/08/15 07:18:37;;;;;;;0.30;0.30;;;23.60;99.90;;;;;;5025957;28;20064;-81
2022/08/15 07:21:10;;;;;;;0.30;0.30;;;23.20;99.90;;;;;;5047233;28;20594;-80
2022/08/15 07:23:57;;;;;;;0.30;0.30;;;23.40;99.90;;;;;;5028415;28;20051;-80
2022/08/15 07:26:24;;;;;;;0.45;0.45;;;23.50;99.90;;;;;;5049825;28;20052;-81
2022/08/15 07:28:51;;;;;;;0.30;0.30;;;23.40;99.90;;;;;;5050390;28;20106;-80
2022/08/15 07:31:36;;;;;;;0.30;0.30;;;23.60;99.90;;;;;;5017521;28;20117;-80
2022/08/15 07:34:36;;;;;;;0.30;0.30;;;23.50;99.90;;;;;;5029664;28;20052;-82
2022/08/15 07:37:06;;;;;;;0.40;0.40;;;23.40;99.90;;;;;;5005020;28;21652;-79
2022/08/15 07:39:40;;;;;;;0.30;0.30;;;23.40;99.90;;;;;;5009651;28;20045;-81
2022/08/15 07:42:13;;;;;;;0.30;0.30;;;23.60;99.90;;;;;;5027650;28;20156;-81
2022/08/15 07:44:48;;;;;;;;;;;23.90;99.90;;;;;;5045384;28;20049;-80
2022/08/15 07:47:22;;;;;;;0.28;0.28;;;24.10;99.90;;;;;;5013961;28;20439;-81
2022/08/15 07:49:58;;;;;;;0.30;0.30;;;24.40;99.90;;;;;;5043114;28;20082;-80
2022/08/15 07:52:25;;;;;;;0.30;0.30;;;24.90;99.90;;;;;;5028201;28;20057;-80
2022/08/15 07:54:56;;;;;;;0.30;0.30;;;24.60;99.90;;;;;;5044896;28;20059;-79
2022/08/15 07:57:35;;;;;;;0.30;0.30;;;24.80;99.90;;;;;;5033044;28;20118;-80
2022/08/15 08:00:13;;;;;;;0.30;0.30;;;25.10;99.90;;;;;;5025408;28;20081;-81
2022/08/15 08:02:45;;;;;;;0.30;0.30;;;24.80;99.90;;;;;;5041051;28;20612;-80
2022/08/15 08:05:12;;;;;;;0.30;0.30;;;25.10;99.90;;;;;;5036225;28;20643;-80
2022/08/15 08:07:46;;;;;;;0.30;0.30;;;25.20;99.90;;;;;;5023096;28;20649;-81
2022/08/15 08:10:28;;;;;;;0.30;0.30;;;25.30;99.90;;;;;;5040444;28;20090;-81
2022/08/15 08:13:12;;;;;;;0.30;0.30;;;25.50;99.90;;;;;;5043199;28;20044;-79
2022/08/15 08:16:07;;;;;;;0.30;0.30;;;25.50;99.90;;;;;;5046170;28;20231;-80
2022/08/15 08:18:36;;;;;;;0.30;0.30;;;25.40;99.90;;;;;;5046929;28;20053;-79
2022/08/15 08:21:11;;;;;;;0.30;0.30;;;25.40;99.90;;;;;;5012587;28;20052;-81
2022/08/15 08:23:48;;;;;;;0.35;0.35;;;25.20;99.90;;;;;;5026468;28;20628;-80
2022/08/15 08:26:44;;;;;;;0.30;0.30;;;25.30;99.90;;;;;;5013864;28;20056;-81
2022/08/15 08:29:28;;;;;;;0.30;0.30;;;25.30;99.90;;;;;;5025687;28;20069;-81
2022/08/15 08:32:01;;;;;;;;;;;25.20;99.90;;;;;;5028167;28;20056;-80
2022/08/15 08:34:56;;;;;;;0.30;0.30;;;25.10;99.90;;;;;;5044334;28;20274;-81
2022/08/15 08:37:38;;;;;;;0.30;0.30;;;24.90;99.90;;;;;;5034146;28;20048;-82
2022/08/15 08:43:27;;;;;;;0.30;0.30;;;25.00;99.90;;;;;;5031345;28;20056;-82
2022/08/15 08:46:02;;;;;;;0.30;0.30;;;24.80;99.90;;;;;;5026388;28;20056;-80
2022/08/15 08:49:09;;;;;;;0.30;0.30;;;24.90;99.90;;;;;;5042532;28;20055;-81
2022/08/15 08:52:04;;;;;;;0.30;0.30;;;25.90;99.90;;;;;;5051815;28;20388;-81
2022/08/15 08:54:44;;;;;;;0.30;0.30;;;25.80;99.90;;;;;;5047775;28;20608;-81
2022/08/15 08:57:16;;;;;;;0.30;0.30;;;25.70;99.90;;;;;;5031917;28;20068;-80
2022/08/15 08:59:59;;;;;;;0.30;0.30;;;25.40;99.90;;;;;;5045390;28;20137;-81
2022/08/15 09:02:35;;;;;;;0.30;0.30;;;25.40;99.90;;;;;;5024873;28;20823;-81
2022/08/15 09:05:17;;;;;;;0.30;0.30;;;25.40;99.90;;;;;;5045559;28;20204;-82
2022/08/15 09:07:49;;;;;;;0.30;0.30;;;25.60;99.90;;;;;;5049197;28;20094;-81
2022/08/15 09:10:32;;;;;;;0.30;0.30;;;25.70;99.90;;;;;;5045039;28;20038;-80
2022/08/15 09:15:48;;;;;;;0.30;0.30;;;25.60;99.90;;;;;;5044080;28;20052;-81
2022/08/15 09:18:19;;;;;;;0.30;0.30;;;25.60;99.90;;;;;;5045282;28;20040;-81
2022/08/15 09:20:46;;;;;;;0.30;0.30;;;25.40;99.90;;;;;;5031342;28;20051;-82
2022/08/15 09:23:13;;;;;;;0.30;0.30;;;25.50;99.90;;;;;;5029063;28;20127;-82
2022/08/15 09:26:01;;;;;;;0.30;0.30;;;25.60;99.90;;;;;;5031671;28;20048;-81
2022/08/15 09:28:39;;;;;;;0.30;0.30;;;25.60;99.90;;;;;;5032113;28;20067;-82
2022/08/15 09:31:14;;;;;;;0.30;0.30;;;25.70;99.90;;;;;;5032505;28;20147;-81
2022/08/15 09:33:50;;;;;;;0.30;0.30;;;25.70;99.90;;;;;;5032025;28;20052;-81
2022/08/15 09:36:31;;;;;;;0.20;0.20;;;25.70;99.90;;;;;;5048968;28;20497;-82
2022/08/15 09:39:21;;;;;;;0.20;0.20;;;25.60;99.90;;;;;;5048842;28;20037;-81
2022/08/15 09:42:13;;;;;;;0.30;0.30;;;25.40;99.90;;;;;;5031195;28;20048;-81
2022/08/15 09:44:57;;;;;;;0.30;0.30;;;25.50;99.90;;;;;;5032270;28;20052;-81
2022/08/15 09:47:32;;;;;;;0.30;0.30;;;25.40;99.90;;;;;;5048368;28;20044;-80
2022/08/15 09:50:18;;;;;;;0.30;0.30;;;25.40;99.90;;;;;;5048184;28;20052;-82
2022/08/15 09:53:16;;;;;;;0.30;0.30;;;25.40;99.90;;;;;;5033400;28;20040;-82
2022/08/15 09:55:46;;;;;;;0.30;0.30;;;25.30;99.90;;;;;;5043358;28;20064;-81
2022/08/15 09:58:20;;;;;;;0.32;0.32;;;25.40;99.90;;;;;;5030059;28;20055;-81
2022/08/15 10:01:18;;;;;;;0.40;0.40;;;25.60;99.90;;;;;;5048364;28;20047;-82
2022/08/15 10:03:44;;;;;;;0.30;0.30;;;25.60;99.90;;;;;;5049394;28;20137;-81
2022/08/15 10:06:20;;;;;;;0.25;0.25;;;25.70;99.90;;;;;;5047603;28;20529;-79
2022/08/15 10:08:55;;;;;;;0.30;0.30;;;25.80;99.90;;;;;;5032290;28;20127;-82
2022/08/15 10:11:56;;;;;;;0.25;0.25;;;26.10;99.90;;;;;;5028668;28;22007;-78
2022/08/15 10:14:22;;;;;;;0.30;0.30;;;26.00;99.90;;;;;;5048144;28;20702;-80
2022/08/15 10:16:52;;;;;;;0.30;0.30;;;26.10;99.90;;;;;;5043412;28;20036;-80
2022/08/15 10:19:39;;;;;;;0.30;0.30;;;26.10;99.90;;;;;;5047255;28;20132;-79
2022/08/15 10:22:21;;;;;;;0.30;0.30;;;26.20;99.90;;;;;;5047664;28;20118;-80
2022/08/15 10:25:22;;;;;;;0.30;0.30;;;26.10;99.90;;;;;;5026494;28;20052;-80
2022/08/15 10:28:10;;;;;;;0.20;0.20;;;26.20;99.90;;;;;;4965368;28;20497;-80
2022/08/15 10:30:40;;;;;;;0.30;0.30;;;26.10;99.90;;;;;;5039666;28;20053;-79
2022/08/15 10:33:33;;;;;;;0.30;0.30;;;26.10;99.90;;;;;;5045507;28;20045;-80
2022/08/15 10:36:14;;;;;;;0.30;0.30;;;26.00;99.90;;;;;;5002057;28;20044;-81
2022/08/15 10:39:25;;;;;;;0.20;0.20;;;26.10;99.90;;;;;;5029384;28;20052;-81
2022/08/15 10:42:17;;;;;;;0.30;0.30;;;26.20;99.90;;;;;;5029619;28;20056;-80
2022/08/15 10:45:12;;;;;;;0.30;0.30;;;26.30;99.90;;;;;;5029300;28;20116;-80
2022/08/15 10:48:21;;;;;;;0.30;0.30;;;26.50;99.90;;;;;;5047708;28;20536;-79
2022/08/15 10:51:05;;;;;;;0.30;0.30;;;26.50;99.90;;;;;;5027030;28;20417;-81
2022/08/15 10:53:47;;;;;;;0.30;0.30;;;26.60;99.90;;;;;;5047793;28;20052;-79
2022/08/15 10:56:22;;;;;;;0.20;0.20;;;26.90;99.90;;;;;;5029116;28;20053;-79
2022/08/15 10:58:50;;;;;;;0.20;0.20;;;27.40;99.90;;;;;;5030482;28;20052;-80
2022/08/15 11:01:27;;;;;;;0.20;0.20;;;27.50;99.90;;;;;;5025420;28;20044;-80
2022/08/15 11:03:58;;;;;;;0.30;0.30;;;27.60;99.90;;;;;;5030777;28;20059;-81
2022/08/15 11:06:24;;;;;;;0.30;0.30;;;27.70;99.90;;;;;;5030776;28;20052;-81
2022/08/15 11:08:54;;;;;;;0.68;0.68;;;27.60;99.90;;;;;;5041850;28;20064;-81
2022/08/15 11:11:30;;;;;;;0.30;0.30;;;27.40;99.90;;;;;;5027090;28;20060;-79
2022/08/15 11:13:59;;;;;;;0.22;0.22;;;27.30;99.90;;;;;;5047348;28;20052;-79
2022/08/15 11:16:37;;;;;;;0.20;0.20;;;27.30;99.90;;;;;;5030397;28;20051;-80
2022/08/15 11:19:24;;;;;;;0.30;0.30;;;27.40;99.90;;;;;;5032449;28;20058;-79
2022/08/15 11:21:55;;;;;;;0.30;0.30;;;27.40;99.90;;;;;;5050322;28;20044;-80
2022/08/15 11:24:37;;;;;;;0.30;0.30;;;27.40;99.90;;;;;;5028464;28;20147;-80
2022/08/15 11:27:14;;;;;;;0.30;0.30;;;27.40;99.90;;;;;;5046283;28;20708;-81
2022/08/15 11:29:40;;;;;;;0.30;0.30;;;27.60;99.90;;;;;;5023144;28;20075;-80
2022/08/15 11:32:06;;;;;;;0.25;0.25;;;27.60;99.90;;;;;;5038053;28;20139;-80
2022/08/15 11:34:43;;;;;;;0.40;0.40;;;27.60;99.90;;;;;;5025606;28;20053;-80
2022/08/15 11:37:09;;;;;;;0.30;0.30;;;27.70;99.90;;;;;;5029950;28;20080;-80
2022/08/15 11:39:41;;;;;;;0.20;0.20;;;27.80;99.90;;;;;;5047135;28;20044;-81
2022/08/15 11:42:13;;;;;;;0.20;0.20;;;27.90;99.90;;;;;;5032101;28;20061;-81
2022/08/15 11:44:44;;;;;;;0.22;0.22;;;28.10;99.90;;;;;;5026745;28;20498;-80
2022/08/15 11:47:16;;;;;;;0.20;0.20;;;28.20;99.90;;;;;;5030341;28;20051;-80
2022/08/15 11:49:49;;;;;;;0.20;0.20;;;28.90;99.90;;;;;;5030925;28;20059;-81
2022/08/15 11:52:22;;;;;;;0.30;0.30;;;29.50;99.90;;;;;;5045224;28;20052;-81
2022/08/15 11:55:08;;;;;;;0.38;0.38;;;29.50;99.90;;;;;;5029339;28;20063;-80
2022/08/15 11:57:41;;;;;;;0.20;0.20;;;30.20;99.90;;;;;;5028754;28;20559;-80
2022/08/15 12:00:32;;;;;;;0.20;0.20;;;30.50;99.90;;;;;;5045742;28;20052;-81
2022/08/15 12:02:57;;;;;;;0.28;0.28;;;30.20;99.90;;;;;;5016253;28;20131;-80
2022/08/15 12:05:33;;;;;;;0.20;0.20;;;30.00;99.90;;;;;;5029461;28;20055;-80
2022/08/15 12:08:02;;;;;;;0.20;0.20;;;29.90;99.90;;;;;;5042149;28;20048;-82
2022/08/15 12:10:37;;;;;;;0.30;0.30;;;29.80;99.90;;;;;;5028209;28;20653;-82
2022/08/15 12:13:04;;;;;;;0.20;0.20;;;30.10;99.90;;;;;;5032477;28;20056;-81
2022/08/15 12:15:33;;;;;;;0.20;0.20;;;30.00;99.90;;;;;;5029372;28;20037;-79
2022/08/15 12:18:32;;;;;;;0.28;0.28;;;29.80;99.90;;;;;;5045631;28;20403;-80
2022/08/15 12:21:02;;;;;;;0.30;0.30;;;29.60;99.90;;;;;;5031344;28;20701;-81
2022/08/15 12:23:45;;;;;;;0.38;0.38;;;29.40;99.90;;;;;;5032311;28;20589;-80
2022/08/15 12:26:14;;;;;;;0.30;0.30;;;29.30;99.90;;;;;;5048077;28;20078;-83
2022/08/15 12:28:41;;;;;;;0.20;0.20;;;29.30;99.90;;;;;;5047850;28;20772;-80
2022/08/15 12:31:24;;;;;;;0.30;0.30;;;29.30;99.90;;;;;;5032201;28;20067;-79
2022/08/15 12:34:02;;;;;;;0.25;0.25;;;29.30;99.90;;;;;;5018540;28;20048;-82
2022/08/15 12:36:29;;;;;;;0.30;0.30;;;29.20;99.90;;;;;;5051260;28;20601;-81
2022/08/15 12:38:54;;;;;;;0.22;0.22;;;29.00;99.90;;;;;;5033198;28;20059;-80
2022/08/15 12:41:20;;;;;;;0.25;0.25;;;29.00;99.90;;;;;;5035790;28;21122;-80
2022/08/15 12:43:47;;;;;;;0.30;0.30;;;28.80;99.90;;;;;;5032489;28;20618;-80
2022/08/15 12:46:13;;;;;;;0.32;0.32;;;28.80;99.90;;;;;;5035422;28;20049;-82
2022/08/15 12:48:39;;;;;;;0.20;0.20;;;28.90;99.90;;;;;;5034405;28;20098;-80
2022/08/15 12:51:16;;;;;;;0.30;0.30;;;28.80;99.90;;;;;;5048861;28;20130;-80
2022/08/15 12:53:42;;;;;;;0.22;0.22;;;28.90;99.90;;;;;;5048001;28;20076;-81
2022/08/15 12:56:09;;;;;;;0.30;0.30;;;29.00;99.90;;;;;;5035636;28;20930;-80
2022/08/15 12:58:36;;;;;;;0.20;0.20;;;28.90;99.90;;;;;;5033113;28;20078;-81
2022/08/15 13:01:10;;;;;;;0.45;0.38;;;29.00;99.90;;;;;;5031954;28;20145;-81
2022/08/15 13:03:43;;;;;;;0.30;0.30;;;29.10;99.90;;;;;;5048708;28;20748;-80
2022/08/15 13:06:39;;;;;;;0.30;0.30;;;29.30;99.90;;;;;;5044943;28;20048;-81
2022/08/15 13:09:09;;;;;;;0.55;0.40;;;29.50;99.90;;;;;;5029574;28;20489;-79
2022/08/15 13:11:37;;;;;;;0.25;0.25;;;29.60;99.90;;;;;;5030940;28;20063;-80
2022/08/15 13:14:02;;;;;;;0.20;0.20;;;29.50;99.90;;;;;;5050471;28;20052;-82
2022/08/15 13:16:31;;;;;;;0.20;0.20;;;29.50;99.90;;;;;;5050125;28;20115;-82
2022/08/15 13:18:57;;;;;;;0.30;0.30;;;29.40;99.90;;;;;;5019415;28;20044;-81
2022/08/15 13:24:07;;;;;;;0.30;0.30;;;30.30;99.90;;;;;;5045889;28;20487;-82
2022/08/15 13:26:40;;;;;;;0.22;0.22;;;30.10;99.90;;;;;;5035564;28;20052;-78
2022/08/15 13:29:07;;;;;;;0.30;0.30;;;29.80;99.90;;;;;;5034138;28;20111;-80
2022/08/15 13:31:34;;;;;;;0.20;0.20;;;30.00;99.90;;;;;;5047622;28;20044;-80
2022/08/15 13:34:00;;;;;;;0.20;0.20;;;29.70;99.90;;;;;;5034337;28;20044;-80
2022/08/15 13:36:28;;;;;;;0.28;0.28;;;29.80;99.90;;;;;;5050818;28;20128;-79